Time;durP1;ratioP1;P1;durP2;ratioP2;P2;SDS_P1;SDS_P2;PMS_P1;PMS_P2;Temp;Humidity;BMP_temperature;BMP_pressure;BME280_temperature;BME280_humidity;BME280_pressure;Samples;Min_cycle;Max_cycle;Signal;HPM_P1;HPM_P2
2023/09/09 00:01:19;;;;;;;5.13;2.50;;;;;;;-143.84;56.85;45066.22;5068190;28;20448;-55
2023/09/09 00:03:47;;;;;;;7.03;3.10;;;;;;;-143.84;56.59;45096.66;5068410;28;20821;-55
2023/09/09 00:06:15;;;;;;;4.93;2.83;;;;;;;-143.84;56.65;45094.78;5068229;28;20854;-55
2023/09/09 00:08:43;;;;;;;9.83;2.90;;;;;;;-143.84;56.15;45085.25;5068096;28;20453;-55
2023/09/09 00:11:10;;;;;;;3.60;3.07;;;;;;;-143.84;56.04;45092.88;5068005;28;20487;-55
2023/09/09 00:13:37;;;;;;;7.10;2.83;;;;;;;-143.84;56.16;45104.28;5068315;28;20535;-55
2023/09/09 00:16:05;;;;;;;3.80;2.43;;;;;;;-143.84;55.65;45102.38;5068246;28;20437;-55
2023/09/09 00:18:32;;;;;;;2.87;2.57;;;;;;;-143.84;55.32;45056.69;5068113;28;20436;-55
2023/09/09 00:21:00;;;;;;;3.87;2.30;;;;;;;-143.84;55.41;45089.06;5067906;28;20490;-55
2023/09/09 00:23:28;;;;;;;18.97;3.00;;;;;;;-143.84;54.46;45075.72;5068059;28;20571;-55
2023/09/09 00:25:56;;;;;;;5.03;2.40;;;;;;;-143.84;54.18;45071.91;5068025;28;20445;-55
2023/09/09 00:28:23;;;;;;;7.20;2.40;;;;;;;-143.84;53.74;45064.31;5068112;28;20794;-55
2023/09/09 00:30:50;;;;;;;4.17;2.83;;;;;;;-143.84;53.40;45123.34;5068123;28;20495;-55
2023/09/09 00:33:18;;;;;;;4.23;2.90;;;;;;;-143.84;52.73;45070.00;5069859;28;20509;-55
2023/09/09 00:35:45;;;;;;;9.40;2.90;;;;;;;-143.84;52.36;45094.78;5071616;28;20448;-55
2023/09/09 00:38:14;;;;;;;10.83;2.73;;;;;;;-143.84;52.13;45092.88;5071802;28;20444;-55
2023/09/09 00:40:44;;;;;;;5.63;2.53;;;;;;;-143.84;52.07;45075.72;5072080;28;20433;-54
2023/09/09 00:43:11;;;;;;;7.03;2.40;;;;;;;-143.84;51.96;45090.97;5071603;28;20478;-55
2023/09/09 00:45:40;;;;;;;14.33;3.13;;;;;;;-143.84;52.02;45064.31;5071684;28;20447;-55
2023/09/09 00:48:08;;;;;;;2.60;2.37;;;;;;;-143.84;51.64;45079.53;5071452;28;20441;-55
2023/09/09 00:50:35;;;;;;;4.70;2.70;;;;;;;-143.84;51.73;45094.78;5071456;28;21077;-55
2023/09/09 00:53:02;;;;;;;4.47;2.27;;;;;;;-143.84;51.36;45081.44;5071378;28;20777;-55
2023/09/09 00:55:30;;;;;;;5.90;2.60;;;;;;;-143.84;51.19;45071.91;5071335;28;20512;-55
2023/09/09 00:57:58;;;;;;;13.73;2.93;;;;;;;-143.84;51.34;45089.06;5071401;28;20604;-55
2023/09/09 01:00:26;;;;;;;3.33;2.53;;;;;;;-143.84;51.70;45111.91;5071103;28;20483;-55
2023/09/09 01:02:53;;;;;;;5.60;2.37;;;;;;;-143.84;52.53;45094.78;5071703;28;20445;-55
2023/09/09 01:05:20;;;;;;;3.10;1.97;;;;;;;-143.84;52.44;45085.25;5071529;28;20872;-55
2023/09/09 01:07:48;;;;;;;4.00;2.27;;;;;;;-143.84;52.38;45062.41;5071413;28;20441;-55
2023/09/09 01:10:17;;;;;;;3.10;2.30;;;;;;;-143.84;52.72;45081.44;5071466;28;20986;-55
2023/09/09 01:12:44;;;;;;;5.57;2.80;;;;;;;-143.84;53.12;45085.25;5071261;28;20441;-55
2023/09/09 01:15:14;;;;;;;6.53;3.20;;;;;;;-143.84;53.38;45102.38;5071065;28;21256;-55
2023/09/09 01:17:41;;;;;;;11.53;3.00;;;;;;;-143.84;53.78;45090.97;5071138;28;20448;-55
2023/09/09 01:20:13;;;;;;;6.00;2.50;;;;;;;-143.84;53.69;45098.56;5070868;28;20455;-55
2023/09/09 01:22:44;;;;;;;6.03;2.80;;;;;;;-143.84;54.00;45090.97;5071222;28;20879;-55
2023/09/09 01:25:12;;;;;;;4.27;2.10;;;;;;;-143.84;54.46;45064.31;5071026;28;20529;-55
2023/09/09 01:27:39;;;;;;;8.63;2.90;;;;;;;-143.84;54.73;45096.66;5071027;28;20429;-55
2023/09/09 01:30:08;;;;;;;15.03;3.10;;;;;;;-143.84;54.79;45104.28;5070892;28;20447;-55
2023/09/09 01:32:35;;;;;;;5.27;2.70;;;;;;;-143.84;54.62;45075.72;5071079;28;20437;-55
2023/09/09 01:35:06;;;;;;;9.20;2.87;;;;;;;-143.84;54.74;45070.00;5070619;28;20444;-55
2023/09/09 01:37:34;;;;;;;15.67;4.20;;;;;;;-143.84;56.34;45102.38;5070569;28;20834;-55
2023/09/09 01:40:09;;;;;;;10.80;3.27;;;;;;;-143.84;57.18;45066.22;5070448;28;20452;-55
2023/09/09 01:42:37;;;;;;;13.00;3.50;;;;;;;-143.84;57.40;45075.72;5070466;28;20490;-55
2023/09/09 01:45:04;;;;;;;10.33;2.87;;;;;;;-143.84;58.13;45083.34;5070226;28;20437;-55
2023/09/09 01:47:32;;;;;;;10.17;3.60;;;;;;;-143.84;58.53;45071.91;5072250;28;20444;-55
2023/09/09 01:49:59;;;;;;;5.30;2.60;;;;;;;-143.84;57.85;45090.97;5090742;28;20436;-55
2023/09/09 01:52:26;;;;;;;7.57;2.90;;;;;;;-143.84;58.41;45081.44;5090356;28;20478;-55
2023/09/09 01:54:53;;;;;;;7.93;2.90;;;;;;;-143.84;57.86;45113.81;5090440;28;20446;-55
2023/09/09 01:57:23;;;;;;;9.53;2.27;;;;;;;-143.84;57.92;45100.47;5090400;28;20532;-55
2023/09/09 01:59:50;;;;;;;12.23;2.47;;;;;;;-143.84;56.92;45117.63;5090308;28;20502;-55
2023/09/09 02:02:17;;;;;;;6.10;2.50;;;;;;;-143.84;56.62;45106.19;5090736;28;20596;-55
2023/09/09 02:04:44;;;;;;;10.40;2.83;;;;;;;-143.84;56.31;45094.78;5090779;28;21108;-55
2023/09/09 02:07:11;;;;;;;7.13;2.37;;;;;;;-143.84;56.45;45079.53;5090383;28;21335;-55
2023/09/09 02:09:39;;;;;;;6.73;2.50;;;;;;;-143.84;55.77;45098.56;5090413;28;20447;-55
2023/09/09 02:12:06;;;;;;;2.63;2.10;;;;;;;-143.84;55.63;45079.53;5090418;28;21056;-55
2023/09/09 02:14:35;;;;;;;2.97;2.33;;;;;;;-143.84;56.00;45098.56;5090440;28;20446;-55
2023/09/09 02:17:03;;;;;;;9.00;2.67;;;;;;;-143.84;55.29;45071.91;5090161;28;20444;-55
2023/09/09 02:19:31;;;;;;;6.70;2.00;;;;;;;-143.84;55.30;45111.91;5090087;28;20448;-55
2023/09/09 02:21:58;;;;;;;8.07;2.27;;;;;;;-143.84;55.76;45089.06;5089801;28;20438;-55
2023/09/09 02:24:25;;;;;;;7.33;2.87;;;;;;;-143.84;56.21;45092.88;5090382;28;20439;-55
2023/09/09 02:26:52;;;;;;;8.03;2.90;;;;;;;-143.84;56.52;45089.06;5090025;28;20462;-55
2023/09/09 02:29:19;;;;;;;2.97;2.67;;;;;;;-143.84;56.74;45077.63;5089995;28;20441;-55
2023/09/09 02:31:48;;;;;;;4.27;2.43;;;;;;;-143.84;56.71;45106.19;5089922;28;20542;-55
2023/09/09 02:34:15;;;;;;;7.60;3.50;;;;;;;-143.84;56.97;45098.56;5090114;28;21246;-55
2023/09/09 02:36:45;;;;;;;6.30;2.63;;;;;;;-143.84;57.19;45092.88;5090033;28;20813;-55
2023/09/09 02:39:12;;;;;;;6.10;3.10;;;;;;;-143.84;57.63;45090.97;5090077;28;20477;-54
2023/09/09 02:41:39;;;;;;;6.13;2.67;;;;;;;-143.84;57.68;45098.56;5089888;28;20446;-55
2023/09/09 02:44:07;;;;;;;6.03;2.60;;;;;;;-143.84;57.30;45073.81;5089721;28;20450;-55
2023/09/09 02:46:34;;;;;;;11.93;2.97;;;;;;;-143.84;57.47;45110.00;5090162;28;20435;-55
2023/09/09 02:49:02;;;;;;;9.70;2.93;;;;;;;-143.84;57.46;45100.47;5089723;28;20441;-55
2023/09/09 02:51:29;;;;;;;10.30;2.43;;;;;;;-143.84;57.55;45098.56;5089351;28;20479;-55
2023/09/09 02:53:56;;;;;;;10.73;3.20;;;;;;;-143.84;57.22;45083.34;5089597;28;20443;-55
2023/09/09 02:56:24;;;;;;;7.13;2.43;;;;;;;-143.84;57.42;45096.66;5089051;28;20427;-54
2023/09/09 02:58:51;;;;;;;5.43;2.47;;;;;;;-143.84;57.34;45117.63;5089124;28;20543;-55
2023/09/09 03:01:18;;;;;;;6.60;3.27;;;;;;;-143.84;57.97;45104.28;5089448;28;20498;-54
2023/09/09 03:03:45;;;;;;;5.20;2.40;;;;;;;-143.84;57.31;45089.06;5089251;28;20443;-54
2023/09/09 03:06:13;;;;;;;8.40;3.00;;;;;;;-143.84;57.75;45113.81;5089530;28;20446;-54
2023/09/09 03:08:40;;;;;;;3.73;2.70;;;;;;;-143.84;57.72;45104.28;5089374;28;20439;-54
2023/09/09 03:11:08;;;;;;;3.70;3.20;;;;;;;-143.84;57.75;45102.38;5089144;28;20531;-54
2023/09/09 03:13:35;;;;;;;4.70;2.87;;;;;;;-143.84;57.41;45073.81;5089313;28;20489;-54
2023/09/09 03:16:02;;;;;;;5.80;2.60;;;;;;;-143.84;57.63;45096.66;5089422;28;20437;-54
2023/09/09 03:18:29;;;;;;;2.80;2.33;;;;;;;-143.84;57.59;45111.91;5089236;28;20434;-55
2023/09/09 03:20:56;;;;;;;3.13;2.83;;;;;;;-143.84;57.82;45083.34;5089271;28;20444;-54
2023/09/09 03:23:25;;;;;;;5.27;2.33;;;;;;;-143.84;58.00;45100.47;5088374;28;20511;-54
2023/09/09 03:25:52;;;;;;;3.57;3.27;;;;;;;-143.84;58.36;45111.91;5089088;28;20458;-54
2023/09/09 03:28:19;;;;;;;4.00;3.10;;;;;;;-143.84;58.47;45125.22;5089197;28;20468;-55
2023/09/09 03:30:54;;;;;;;6.07;2.53;;;;;;;-143.84;58.41;45100.47;5089071;28;20431;-55
2023/09/09 03:33:22;;;;;;;2.70;2.40;;;;;;;-143.84;58.60;45108.09;5089075;28;20447;-54
2023/09/09 03:35:49;;;;;;;7.93;2.70;;;;;;;-143.84;58.54;45098.56;5089030;28;20445;-54
2023/09/09 03:38:17;;;;;;;10.33;2.70;;;;;;;-143.84;59.00;45102.38;5088926;28;20544;-55
2023/09/09 03:40:45;;;;;;;6.40;3.10;;;;;;;-143.84;59.28;45079.53;5077230;28;20943;-55
2023/09/09 03:43:13;;;;;;;8.50;2.57;;;;;;;-143.84;59.15;45108.09;5068858;28;20446;-55
2023/09/09 03:45:40;;;;;;;6.93;2.97;;;;;;;-143.84;59.27;45092.88;5068787;28;20431;-55
2023/09/09 03:48:07;;;;;;;4.67;2.63;;;;;;;-143.84;59.22;45115.72;5068926;28;20435;-55
2023/09/09 03:50:35;;;;;;;11.80;3.10;;;;;;;-143.84;59.45;45106.19;5068772;28;20451;-54
2023/09/09 03:53:02;;;;;;;6.20;3.00;;;;;;;-143.84;59.74;45110.00;5068942;28;20488;-54
2023/09/09 03:55:29;;;;;;;3.60;2.53;;;;;;;-143.84;60.07;45094.78;5069565;28;20534;-54
2023/09/09 03:57:58;;;;;;;4.53;2.67;;;;;;;-143.84;60.02;45121.44;5088914;28;20517;-54
2023/09/09 04:00:25;;;;;;;3.60;2.50;;;;;;;-143.84;59.75;45083.34;5088585;28;20568;-54
2023/09/09 04:02:52;;;;;;;6.97;2.53;;;;;;;-143.84;59.57;45125.22;5088848;28;20962;-54
2023/09/09 04:05:19;;;;;;;7.60;3.03;;;;;;;-143.84;59.14;45121.44;5088666;28;20461;-54
2023/09/09 04:07:46;;;;;;;3.37;2.20;;;;;;;-143.84;59.18;45092.88;5091129;28;20439;-54
2023/09/09 04:10:14;;;;;;;10.50;2.60;;;;;;;-143.84;59.27;45092.88;5092537;28;20495;-55
2023/09/09 04:12:41;;;;;;;5.73;2.80;;;;;;;-143.84;59.07;45110.00;5092586;28;20874;-54
2023/09/09 04:15:10;;;;;;;11.73;2.20;;;;;;;-143.84;58.99;45081.44;5092625;28;20445;-55
2023/09/09 04:17:40;;;;;;;8.60;2.37;;;;;;;-143.84;58.99;45121.44;5092207;28;20536;-55
2023/09/09 04:20:08;;;;;;;3.63;2.70;;;;;;;-143.84;59.24;45089.06;5092207;28;20960;-55
2023/09/09 04:22:35;;;;;;;6.00;2.80;;;;;;;-143.84;59.24;45092.88;5091941;28;20960;-55
2023/09/09 04:25:03;;;;;;;8.03;2.70;;;;;;;-143.84;59.19;45087.16;5092345;28;20444;-55
2023/09/09 04:27:31;;;;;;;4.40;2.57;;;;;;;-143.84;59.11;45075.72;5091891;28;20494;-55
2023/09/09 04:29:58;;;;;;;22.23;2.83;;;;;;;-143.84;59.20;45115.72;5091861;28;20445;-54
2023/09/09 04:32:31;;;;;;;4.60;2.50;;;;;;;-143.84;59.39;45089.06;5091682;28;20487;-55
2023/09/09 04:34:58;;;;;;;8.40;3.03;;;;;;;-143.84;59.79;45100.47;5091388;28;20924;-55
2023/09/09 04:37:27;;;;;;;10.50;2.60;;;;;;;-143.84;59.73;45110.00;5092083;28;20447;-54
2023/09/09 04:39:55;;;;;;;14.67;3.13;;;;;;;-143.84;59.99;45094.78;5091692;28;20446;-54
2023/09/09 04:42:22;;;;;;;6.63;3.07;;;;;;;-143.84;59.80;45083.34;5060399;28;20464;-56
2023/09/09 04:44:49;;;;;;;6.50;2.60;;;;;;;-143.84;59.24;45104.28;5051109;28;20448;-56
2023/09/09 04:47:16;;;;;;;3.73;2.13;;;;;;;-143.84;58.40;45098.56;5050943;28;20445;-56
2023/09/09 04:49:45;;;;;;;9.57;2.20;;;;;;;-143.84;56.80;45094.78;5050703;28;20433;-58
2023/09/09 04:52:12;;;;;;;6.23;2.83;;;;;;;-143.84;56.16;45102.38;5050577;28;20485;-59
2023/09/09 04:54:39;;;;;;;6.60;3.00;;;;;;;-143.84;55.04;45075.72;5050753;28;20453;-58
2023/09/09 04:57:07;;;;;;;4.80;2.90;;;;;;;-143.84;53.14;45090.97;5050819;28;20527;-58
2023/09/09 04:59:34;;;;;;;4.17;2.80;;;;;;;-143.84;52.35;45090.97;5050527;28;20491;-58
2023/09/09 05:02:01;;;;;;;4.07;2.90;;;;;;;-143.84;50.50;45083.34;5050706;28;20434;-59
2023/09/09 05:04:28;;;;;;;6.77;3.47;;;;;;;-143.84;49.34;45083.34;5050526;28;20445;-59
2023/09/09 05:06:57;;;;;;;6.50;3.33;;;;;;;-143.84;48.16;45062.41;5051058;28;20441;-59
2023/09/09 05:09:24;;;;;;;13.67;2.57;;;;;;;-143.84;46.78;45039.53;5050014;28;20433;-57
2023/09/09 05:11:51;;;;;;;4.27;2.60;;;;;;;-143.84;45.91;45068.13;5050533;28;20551;-57
2023/09/09 05:14:19;;;;;;;10.73;2.60;;;;;;;-143.84;45.15;45026.22;5050516;28;20470;-57
2023/09/09 05:16:46;;;;;;;5.93;2.70;;;;;;;-143.84;44.42;45039.53;5050605;28;20458;-56
2023/09/09 05:19:14;;;;;;;4.83;2.70;;;;;;;-143.84;43.40;45014.78;5049642;28;20849;-57
2023/09/09 05:21:41;;;;;;;4.03;2.20;;;;;;;-143.84;42.63;45037.66;5050363;28;20445;-56
2023/09/09 05:24:10;;;;;;;6.13;2.57;;;;;;;-143.84;42.10;45064.31;5050127;28;20441;-57
2023/09/09 05:26:37;;;;;;;6.03;2.80;;;;;;;-143.84;41.69;45030.03;5050246;28;20460;-56
2023/09/09 05:29:04;;;;;;;4.67;2.30;;;;;;;-143.84;41.77;45066.22;5050639;28;20830;-56
2023/09/09 05:31:31;;;;;;;2.23;1.80;;;;;;;-143.84;41.17;45043.34;5059002;28;20486;-56
2023/09/09 05:33:59;;;;;;;10.83;2.30;;;;;;;-143.84;40.66;45056.69;5069638;28;20819;-56
2023/09/09 05:36:26;;;;;;;8.37;2.40;;;;;;;-143.84;40.40;45045.25;5069649;28;20429;-56
2023/09/09 05:38:59;;;;;;;2.93;2.00;;;;;;;-143.84;40.27;45037.66;5069500;28;20862;-57
2023/09/09 05:41:28;;;;;;;8.50;2.43;;;;;;;-143.84;40.12;45010.97;5069909;28;20524;-56
2023/09/09 05:43:55;;;;;;;4.60;2.83;;;;;;;-143.84;39.77;45007.19;5069844;28;20426;-56
2023/09/09 05:46:23;;;;;;;8.87;3.07;;;;;;;-143.84;39.49;45026.22;5069837;28;20502;-56
2023/09/09 05:48:50;;;;;;;6.03;2.90;;;;;;;-143.84;39.13;45010.97;5069882;28;20437;-56
2023/09/09 05:51:18;;;;;;;6.80;2.60;;;;;;;-143.84;38.79;45016.69;5069823;28;20528;-56
2023/09/09 05:53:45;;;;;;;8.33;2.50;;;;;;;-143.84;38.83;45001.47;5069033;28;20476;-57
2023/09/09 05:56:12;;;;;;;5.57;1.87;;;;;;;-143.84;38.74;44982.41;5069765;28;20532;-56
2023/09/09 05:58:41;;;;;;;11.80;2.80;;;;;;;-143.84;38.86;45016.69;5069455;28;20871;-56
2023/09/09 06:01:08;;;;;;;4.80;2.43;;;;;;;-143.84;38.38;45009.09;5069565;28;20452;-56
2023/09/09 06:03:36;;;;;;;7.37;2.30;;;;;;;-143.84;38.24;45066.22;5069678;28;20424;-57
2023/09/09 06:06:03;;;;;;;3.30;2.10;;;;;;;-143.84;38.41;45030.03;5069407;28;20524;-56
2023/09/09 06:08:30;;;;;;;13.27;2.17;;;;;;;-143.84;38.55;45010.97;5068773;28;20437;-55
2023/09/09 06:10:57;;;;;;;5.83;2.23;;;;;;;-143.84;38.08;45020.50;5069310;28;20440;-56
2023/09/09 06:13:24;;;;;;;3.23;2.13;;;;;;;-143.84;37.01;44988.13;5069165;28;20476;-56
2023/09/09 06:15:53;;;;;;;13.90;2.40;;;;;;;-143.84;36.65;45003.38;5056654;28;20468;-56
2023/09/09 06:18:20;;;;;;;8.07;2.80;;;;;;;-143.84;35.49;44980.53;5068543;28;20482;-56
2023/09/09 06:20:48;;;;;;;11.40;2.77;;;;;;;-143.84;35.45;44984.31;5049116;28;20444;-56
2023/09/09 06:23:15;;;;;;;2.50;2.30;;;;;;;-143.84;35.80;45005.28;5067155;28;20448;-56
2023/09/09 06:25:42;;;;;;;5.27;2.13;;;;;;;-143.84;35.08;44999.56;5068979;28;20440;-56
2023/09/09 06:28:09;;;;;;;5.20;2.70;;;;;;;-143.84;34.70;44923.41;5069243;28;20433;-56
2023/09/09 06:30:36;;;;;;;6.80;2.53;;;;;;;-143.84;34.43;44978.63;5068029;28;20437;-56
2023/09/09 06:33:06;;;;;;;10.23;2.33;;;;;;;-143.84;34.45;44980.53;5068359;28;20477;-56
2023/09/09 06:35:33;;;;;;;6.23;2.40;;;;;;;-143.84;34.44;44993.84;5068486;28;20895;-56
2023/09/09 06:38:00;;;;;;;14.17;2.40;;;;;;;-143.84;34.08;44976.72;5068405;28;20781;-56
2023/09/09 06:40:27;;;;;;;6.70;2.67;;;;;;;-143.84;33.51;44951.97;5068751;28;20429;-56
2023/09/09 06:42:55;;;;;;;8.40;2.53;;;;;;;-143.84;34.17;44969.09;5068632;28;20432;-56
2023/09/09 06:45:22;;;;;;;6.80;2.93;;;;;;;-143.84;32.81;44972.91;5068919;28;20451;-56
2023/09/09 06:47:49;;;;;;;3.00;2.07;;;;;;;-143.84;33.04;44961.47;5068651;28;20494;-56
2023/09/09 06:50:18;;;;;;;5.97;2.40;;;;;;;-143.84;32.31;44974.81;5068502;28;20490;-56
2023/09/09 06:52:45;;;;;;;7.13;2.73;;;;;;;-143.84;32.83;44942.44;5067895;28;20480;-56
2023/09/09 06:55:12;;;;;;;7.20;2.50;;;;;;;-143.84;32.46;44915.78;5068898;28;20438;-56
2023/09/09 06:57:39;;;;;;;9.50;2.30;;;;;;;-143.84;31.91;44976.72;5068439;28;20444;-56
2023/09/09 07:00:08;;;;;;;6.70;3.07;;;;;;;-143.84;32.06;44932.91;5068179;28;20488;-56
2023/09/09 07:02:35;;;;;;;5.83;2.50;;;;;;;-143.84;31.85;44951.97;5068820;28;20445;-56
2023/09/09 07:05:03;;;;;;;7.10;2.70;;;;;;;-143.84;31.89;44976.72;5068739;28;20487;-56
2023/09/09 07:07:31;;;;;;;3.43;2.33;;;;;;;-143.84;31.40;44934.81;5068019;28;20437;-56
2023/09/09 07:09:59;;;;;;;7.53;3.13;;;;;;;-143.84;30.92;44944.34;5068683;28;20435;-56
2023/09/09 07:12:26;;;;;;;3.77;3.00;;;;;;;-143.84;31.73;44931.00;5068103;28;21046;-56
2023/09/09 07:14:53;;;;;;;8.40;3.20;;;;;;;-143.84;31.70;44957.66;5068209;28;20440;-56
2023/09/09 07:17:20;;;;;;;4.20;2.50;;;;;;;-143.84;31.54;44951.97;5051022;28;20458;-53
2023/09/09 07:19:47;;;;;;;6.60;2.87;;;;;;;-143.84;30.92;44944.34;5048439;28;20495;-52
2023/09/09 07:22:14;;;;;;;6.33;2.60;;;;;;;-143.84;31.62;44961.47;5047981;28;20457;-52
2023/09/09 07:24:43;;;;;;;5.53;2.90;;;;;;;-143.84;31.37;44940.53;5048561;28;20445;-52
2023/09/09 07:27:10;;;;;;;16.23;3.77;;;;;;;-143.84;31.05;44925.31;5048078;28;20442;-53
2023/09/09 07:29:37;;;;;;;5.40;3.00;;;;;;;-143.84;31.43;44936.72;5048473;28;20460;-52
2023/09/09 07:32:05;;;;;;;7.43;3.10;;;;;;;-143.84;30.58;44940.53;5048081;28;20450;-52
2023/09/09 07:34:32;;;;;;;6.90;2.20;;;;;;;-143.84;30.54;44917.69;5048282;28;20442;-52
2023/09/09 07:36:59;;;;;;;9.13;3.37;;;;;;;-143.84;30.05;44942.44;5047903;28;20488;-53
2023/09/09 07:39:28;;;;;;;6.70;3.13;;;;;;;-143.84;29.87;44950.06;5048201;28;20442;-52
2023/09/09 07:41:57;;;;;;;4.57;3.17;;;;;;;-143.84;30.04;44911.97;5057664;28;20976;-52
2023/09/09 07:44:24;;;;;;;5.83;3.13;;;;;;;-143.84;30.04;44944.34;5072186;28;20437;-52
2023/09/09 07:46:51;;;;;;;8.83;3.63;;;;;;;-143.84;30.13;44936.72;5072101;28;21302;-53
2023/09/09 07:49:21;;;;;;;9.17;2.83;;;;;;;-143.84;30.52;44950.06;5072062;28;20440;-52
2023/09/09 07:51:48;;;;;;;6.60;3.30;;;;;;;-143.84;29.78;44946.25;5071753;28;20966;-52
2023/09/09 07:54:15;;;;;;;6.20;3.00;;;;;;;-143.84;29.61;44950.06;5072011;28;20893;-53
2023/09/09 07:56:45;;;;;;;13.03;3.10;;;;;;;-143.84;30.41;44927.19;5072199;28;20436;-52
2023/09/09 07:59:14;;;;;;;10.80;2.83;;;;;;;-143.84;29.37;44929.09;5071448;28;20480;-53
2023/09/09 08:01:41;;;;;;;2.07;1.90;;;;;;;-143.84;29.61;44900.53;5089498;28;20497;-52
2023/09/09 08:04:08;;;;;;;7.03;2.73;;;;;;;-143.84;29.95;44934.81;5079175;28;20966;-53
2023/09/09 08:06:35;;;;;;;4.57;2.83;;;;;;;-143.84;28.84;44925.31;5070469;28;20456;-53
2023/09/09 08:09:02;;;;;;;9.80;3.70;;;;;;;-143.84;28.23;44904.34;5075582;28;20443;-53
2023/09/09 08:11:29;;;;;;;4.60;3.37;;;;;;;-143.84;28.62;44896.75;5078121;28;20459;-52
2023/09/09 08:13:56;;;;;;;13.90;3.07;;;;;;;-143.84;28.18;44913.88;5082784;28;20540;-52
2023/09/09 08:16:25;;;;;;;10.00;3.17;;;;;;;-143.84;28.01;44891.03;5074099;28;20444;-53
2023/09/09 08:18:52;;;;;;;5.37;2.60;;;;;;;-143.84;27.96;44917.69;5068050;28;20852;-52
2023/09/09 08:21:19;;;;;;;6.60;3.60;;;;;;;-143.84;28.19;44908.16;5081073;28;20863;-53
2023/09/09 08:23:46;;;;;;;6.37;2.70;;;;;;;-143.84;28.00;44904.34;5083079;28;20443;-53
2023/09/09 08:26:13;;;;;;;4.13;3.00;;;;;;;-143.84;26.79;44904.34;5071909;28;21025;-52
2023/09/09 08:28:41;;;;;;;7.53;3.00;;;;;;;-143.84;26.99;44892.94;5081789;28;20457;-53
2023/09/09 08:31:08;;;;;;;3.40;1.87;;;;;;;-143.84;26.68;44881.50;5080976;28;20468;-53
2023/09/09 08:33:36;;;;;;;21.00;3.20;;;;;;;-143.84;27.42;44900.53;5081806;28;20592;-52
2023/09/09 08:36:04;;;;;;;4.97;2.60;;;;;;;-143.84;26.84;44915.78;5077353;28;20820;-52
2023/09/09 08:38:32;;;;;;;5.70;2.37;;;;;;;-143.84;27.51;44900.53;5082412;28;20883;-52
2023/09/09 08:41:06;;;;;;;5.73;2.30;;;;;;;-143.84;28.25;44881.50;5076062;28;20440;-52
2023/09/09 08:43:42;;;;;;;11.13;2.87;;;;;;;-143.84;28.33;44904.34;5071227;28;20487;-52
2023/09/09 08:46:14;;;;;;;7.57;3.17;;;;;;;-143.84;29.16;44913.88;5071131;28;20479;-52
2023/09/09 08:48:44;;;;;;;6.53;3.23;;;;;;;-143.84;27.92;44889.13;5070517;28;20468;-52
2023/09/09 08:51:14;;;;;;;9.83;2.70;;;;;;;-143.84;28.08;44889.13;5072019;28;20456;-52
2023/09/09 08:53:43;;;;;;;16.33;2.20;;;;;;;-143.84;27.46;44883.41;5071661;28;20634;-52
2023/09/09 08:56:12;;;;;;;7.70;2.20;;;;;;;-143.84;28.43;44870.09;5071193;28;20433;-52
2023/09/09 08:58:40;;;;;;;10.23;2.80;;;;;;;-143.84;28.01;44906.25;5075342;28;20495;-52
2023/09/09 09:01:07;;;;;;;7.00;2.50;;;;;;;-143.84;27.65;44871.97;5077554;28;20441;-52
2023/09/09 09:03:35;;;;;;;6.53;3.10;;;;;;;-143.84;28.08;44862.47;5070266;28;20441;-52
2023/09/09 09:06:05;;;;;;;8.20;2.47;;;;;;;-143.84;26.87;44877.69;5067363;28;20445;-52
2023/09/09 09:08:34;;;;;;;6.50;3.20;;;;;;;-143.84;26.91;44908.16;5070117;28;20445;-52
2023/09/09 09:11:04;;;;;;;4.43;2.63;;;;;;;-143.84;27.35;44900.53;5074040;28;20929;-52
2023/09/09 09:13:32;;;;;;;9.20;2.40;;;;;;;-143.84;27.14;44873.88;5072926;28;20479;-52
2023/09/09 09:16:00;;;;;;;7.90;2.43;;;;;;;-143.84;26.51;44913.88;5070527;28;20498;-52
2023/09/09 09:18:27;;;;;;;5.00;2.50;;;;;;;-143.84;27.47;44896.75;5070079;28;20445;-52
2023/09/09 09:21:07;;;;;;;5.43;2.47;;;;;;;-143.84;26.74;44896.75;5069451;28;20459;-52
2023/09/09 09:23:35;;;;;;;8.53;2.83;;;;;;;-143.84;27.06;44862.47;5070061;28;21232;-52
2023/09/09 09:26:02;;;;;;;10.97;2.80;;;;;;;-143.84;27.29;44881.50;5069514;28;20518;-52
2023/09/09 09:28:30;;;;;;;4.43;2.40;;;;;;;-143.84;28.36;44870.09;5070165;28;20428;-52
2023/09/09 09:30:57;;;;;;;6.30;2.80;;;;;;;-143.84;27.19;44881.50;5069568;28;20436;-52
2023/09/09 09:33:25;;;;;;;7.73;2.90;;;;;;;-143.84;27.27;44885.31;5069635;28;21077;-52
2023/09/09 09:35:52;;;;;;;4.50;2.73;;;;;;;-143.84;27.52;44885.31;5069302;28;20808;-52
2023/09/09 09:38:21;;;;;;;5.40;2.80;;;;;;;-143.84;27.17;44889.13;5066941;28;20456;-52
2023/09/09 09:40:48;;;;;;;10.23;3.03;;;;;;;-143.84;26.43;44915.78;5069852;28;20505;-52
2023/09/09 09:43:19;;;;;;;6.93;2.80;;;;;;;-143.84;27.47;44868.19;5071879;28;20452;-52
2023/09/09 09:45:46;;;;;;;12.70;2.83;;;;;;;-143.84;27.64;44896.75;5070250;28;20527;-52
2023/09/09 09:48:25;;;;;;;4.20;2.57;;;;;;;-143.84;27.76;44908.16;5068671;28;20437;-52
2023/09/09 09:50:54;;;;;;;5.53;2.27;;;;;;;-143.84;27.99;44885.31;5066193;28;20444;-52
2023/09/09 09:53:22;;;;;;;7.67;3.33;;;;;;;-143.84;28.12;44944.34;5072718;28;20483;-52
2023/09/09 09:55:52;;;;;;;8.90;3.20;;;;;;;-143.84;28.18;44900.53;5069838;28;20825;-52
2023/09/09 09:58:25;;;;;;;4.70;3.00;;;;;;;-143.84;28.30;44904.34;5072398;28;20555;-53
2023/09/09 10:00:53;;;;;;;6.90;2.30;;;;;;;-143.84;28.52;44898.66;5078321;28;20450;-52
2023/09/09 10:03:24;;;;;;;11.97;2.63;;;;;;;-143.84;28.57;44889.13;5075638;28;20445;-52
2023/09/09 10:05:54;;;;;;;7.23;2.70;;;;;;;-143.84;28.56;44894.84;5070986;28;20519;-52
2023/09/09 10:08:30;;;;;;;12.33;2.67;;;;;;;-143.84;27.59;44904.34;5068521;28;20444;-53
2023/09/09 10:11:03;;;;;;;4.53;2.17;;;;;;;-143.84;27.95;44889.13;5069213;28;20505;-52
2023/09/09 10:13:36;;;;;;;6.23;2.20;;;;;;;-143.84;27.83;44900.53;5066093;28;20484;-52
2023/09/09 10:16:05;;;;;;;6.23;2.37;;;;;;;-143.84;27.45;44915.78;5072815;28;20526;-52
2023/09/09 10:18:33;;;;;;;9.27;3.17;;;;;;;-143.84;29.05;44942.44;5068967;28;20512;-52
2023/09/09 10:21:02;;;;;;;6.40;2.70;;;;;;;-143.84;29.03;44925.31;5068472;28;20453;-52
2023/09/09 10:23:30;;;;;;;9.77;2.53;;;;;;;-143.84;28.55;44927.19;5068482;28;20440;-52
2023/09/09 10:25:59;;;;;;;5.63;2.80;;;;;;;-143.84;29.26;44934.81;5068762;28;20445;-52
2023/09/09 10:28:26;;;;;;;5.50;2.53;;;;;;;-143.84;27.93;44898.66;5068881;28;20453;-52
2023/09/09 10:30:55;;;;;;;3.97;2.67;;;;;;;-143.84;28.41;44923.41;5068300;28;20505;-52
2023/09/09 10:33:23;;;;;;;5.50;3.27;;;;;;;-143.84;28.56;44894.84;5068318;28;20484;-52
2023/09/09 10:35:50;;;;;;;8.40;2.80;;;;;;;-143.84;28.59;44915.78;5066299;28;20964;-52
2023/09/09 10:38:18;;;;;;;7.97;2.83;;;;;;;-143.84;29.36;44896.75;5069759;28;20532;-52
2023/09/09 10:40:48;;;;;;;2.50;2.20;;;;;;;-143.84;28.28;44911.97;5075384;28;20441;-52
2023/09/09 10:43:16;;;;;;;5.73;2.40;;;;;;;-143.84;26.94;44940.53;5068710;28;20487;-52
2023/09/09 10:45:44;;;;;;;18.60;3.00;;;;;;;-143.84;27.81;44921.50;5068350;28;20559;-52
2023/09/09 10:48:12;;;;;;;4.37;2.27;;;;;;;-143.84;29.03;44919.59;5068821;28;20448;-52
2023/09/09 10:50:44;;;;;;;9.70;3.60;;;;;;;-143.84;30.72;44906.25;5068517;28;20441;-52
2023/09/09 10:53:16;;;;;;;8.13;2.87;;;;;;;-143.84;30.51;44934.81;5067045;28;20455;-52
2023/09/09 10:55:44;;;;;;;5.00;2.80;;;;;;;-143.84;30.57;44942.44;5063747;28;20445;-52
2023/09/09 10:58:16;;;;;;;5.23;2.73;;;;;;;-143.84;31.55;44946.25;5070094;28;20461;-52
2023/09/09 11:00:46;;;;;;;13.17;3.20;;;;;;;-143.84;31.65;44921.50;5030024;28;20454;-52
2023/09/09 11:03:16;;;;;;;4.70;2.83;;;;;;;-143.84;31.63;44932.91;5028322;28;20530;-52
2023/09/09 11:06:05;;;;;;;9.07;3.03;;;;;;;-143.84;32.40;44946.25;5024780;28;20457;-52
2023/09/09 11:08:35;;;;;;;4.67;3.50;;;;;;;-143.84;32.25;44953.88;5031633;28;20453;-52
2023/09/09 11:11:08;;;;;;;2.83;2.60;;;;;;;-143.84;31.86;44931.00;5038024;28;20454;-52
2023/09/09 11:13:42;;;;;;;3.53;2.50;;;;;;;-143.84;32.29;44932.91;5041140;28;21134;-52
2023/09/09 11:16:23;;;;;;;5.47;2.80;;;;;;;-143.84;33.17;44953.88;5031232;28;20500;-52
2023/09/09 11:18:52;;;;;;;7.00;2.53;;;;;;;-143.84;33.47;44948.16;5038404;28;21306;-52
2023/09/09 11:21:22;;;;;;;7.03;2.37;;;;;;;-143.84;31.88;44946.25;5041393;28;20955;-52